sensor_id;sensor_type;location;lat;lon;timestamp;P1;durP1;ratioP1;P2;durP2;ratioP2
49392;SDS011;35268;42.642;23.308;2023-06-14T00:00:56;10.38;;;7.00;;
49392;SDS011;35268;42.642;23.308;2023-06-14T00:03:22;8.57;;;5.30;;
49392;SDS011;35268;42.642;23.308;2023-06-14T00:05:49;11.75;;;5.47;;
49392;SDS011;35268;42.642;23.308;2023-06-14T00:08:15;12.25;;;5.10;;
49392;SDS011;35268;42.642;23.308;2023-06-14T00:10:40;9.27;;;5.78;;
49392;SDS011;35268;42.642;23.308;2023-06-14T00:13:07;9.88;;;6.22;;
49392;SDS011;35268;42.642;23.308;2023-06-14T00:15:34;10.85;;;6.90;;
49392;SDS011;35268;42.642;23.308;2023-06-14T00:18:00;7.85;;;5.72;;
49392;SDS011;35268;42.642;23.308;2023-06-14T00:20:29;11.73;;;5.60;;
49392;SDS011;35268;42.642;23.308;2023-06-14T00:22:56;13.93;;;5.65;;
49392;SDS011;35268;42.642;23.308;2023-06-14T00:25:25;9.00;;;6.18;;
49392;SDS011;35268;42.642;23.308;2023-06-14T00:27:50;11.68;;;6.10;;
49392;SDS011;35268;42.642;23.308;2023-06-14T00:30:16;9.48;;;6.15;;
49392;SDS011;35268;42.642;23.308;2023-06-14T00:32:42;8.15;;;5.95;;
49392;SDS011;35268;42.642;23.308;2023-06-14T00:35:09;18.50;;;6.30;;
49392;SDS011;35268;42.642;23.308;2023-06-14T00:37:35;9.05;;;6.45;;
49392;SDS011;35268;42.642;23.308;2023-06-14T00:40:00;9.75;;;6.38;;
49392;SDS011;35268;42.642;23.308;2023-06-14T00:42:26;7.53;;;6.03;;
49392;SDS011;35268;42.642;23.308;2023-06-14T00:44:53;9.90;;;5.75;;
49392;SDS011;35268;42.642;23.308;2023-06-14T00:47:19;10.45;;;6.03;;
49392;SDS011;35268;42.642;23.308;2023-06-14T00:49:46;10.55;;;6.25;;
49392;SDS011;35268;42.642;23.308;2023-06-14T00:52:12;9.38;;;5.65;;
49392;SDS011;35268;42.642;23.308;2023-06-14T00:54:42;10.27;;;5.82;;
49392;SDS011;35268;42.642;23.308;2023-06-14T00:57:09;10.10;;;6.15;;
49392;SDS011;35268;42.642;23.308;2023-06-14T00:59:36;10.85;;;5.68;;
49392;SDS011;35268;42.642;23.308;2023-06-14T01:02:06;11.40;;;5.37;;
49392;SDS011;35268;42.642;23.308;2023-06-14T01:04:41;7.80;;;5.30;;
49392;SDS011;35268;42.642;23.308;2023-06-14T01:12:31;8.18;;;5.63;;
49392;SDS011;35268;42.642;23.308;2023-06-14T01:15:19;9.27;;;5.97;;
49392;SDS011;35268;42.642;23.308;2023-06-14T01:17:45;10.65;;;5.18;;
49392;SDS011;35268;42.642;23.308;2023-06-14T01:20:16;7.90;;;5.22;;
49392;SDS011;35268;42.642;23.308;2023-06-14T01:22:54;7.47;;;4.88;;
49392;SDS011;35268;42.642;23.308;2023-06-14T01:25:20;8.85;;;5.60;;
49392;SDS011;35268;42.642;23.308;2023-06-14T01:27:51;11.13;;;5.63;;
49392;SDS011;35268;42.642;23.308;2023-06-14T01:30:20;11.38;;;5.38;;
49392;SDS011;35268;42.642;23.308;2023-06-14T01:32:47;8.80;;;5.80;;
49392;SDS011;35268;42.642;23.308;2023-06-14T01:35:15;7.43;;;5.03;;
49392;SDS011;35268;42.642;23.308;2023-06-14T01:37:41;8.18;;;5.63;;
49392;SDS011;35268;42.642;23.308;2023-06-14T01:40:09;8.93;;;5.72;;
49392;SDS011;35268;42.642;23.308;2023-06-14T01:42:36;6.57;;;5.07;;
49392;SDS011;35268;42.642;23.308;2023-06-14T01:45:03;9.32;;;5.13;;
49392;SDS011;35268;42.642;23.308;2023-06-14T01:47:31;6.68;;;5.30;;
49392;SDS011;35268;42.642;23.308;2023-06-14T01:49:58;8.07;;;4.95;;
49392;SDS011;35268;42.642;23.308;2023-06-14T01:52:23;8.20;;;5.60;;
49392;SDS011;35268;42.642;23.308;2023-06-14T01:54:49;8.60;;;4.97;;
49392;SDS011;35268;42.642;23.308;2023-06-14T01:57:15;10.98;;;5.32;;
49392;SDS011;35268;42.642;23.308;2023-06-14T01:59:41;7.70;;;5.63;;
49392;SDS011;35268;42.642;23.308;2023-06-14T02:02:06;11.63;;;5.22;;
49392;SDS011;35268;42.642;23.308;2023-06-14T02:04:34;8.38;;;4.97;;
49392;SDS011;35268;42.642;23.308;2023-06-14T02:06:59;7.78;;;5.28;;
49392;SDS011;35268;42.642;23.308;2023-06-14T02:09:25;6.85;;;4.82;;
49392;SDS011;35268;42.642;23.308;2023-06-14T02:11:50;10.63;;;4.78;;
49392;SDS011;35268;42.642;23.308;2023-06-14T02:14:16;8.10;;;4.78;;
49392;SDS011;35268;42.642;23.308;2023-06-14T02:16:42;7.57;;;5.50;;
49392;SDS011;35268;42.642;23.308;2023-06-14T02:19:14;9.63;;;6.85;;
49392;SDS011;35268;42.642;23.308;2023-06-14T02:21:41;9.45;;;5.90;;
49392;SDS011;35268;42.642;23.308;2023-06-14T02:24:07;12.35;;;5.63;;
49392;SDS011;35268;42.642;23.308;2023-06-14T02:26:32;7.07;;;5.43;;
49392;SDS011;35268;42.642;23.308;2023-06-14T02:28:57;19.45;;;4.53;;
49392;SDS011;35268;42.642;23.308;2023-06-14T02:31:26;7.65;;;4.93;;
49392;SDS011;35268;42.642;23.308;2023-06-14T02:33:52;15.23;;;4.95;;
49392;SDS011;35268;42.642;23.308;2023-06-14T02:36:17;8.90;;;4.95;;
49392;SDS011;35268;42.642;23.308;2023-06-14T02:38:43;11.80;;;4.63;;
49392;SDS011;35268;42.642;23.308;2023-06-14T02:41:08;7.35;;;5.03;;
49392;SDS011;35268;42.642;23.308;2023-06-14T02:43:34;8.73;;;5.15;;
49392;SDS011;35268;42.642;23.308;2023-06-14T02:46:00;8.18;;;5.63;;
49392;SDS011;35268;42.642;23.308;2023-06-14T02:48:31;9.35;;;5.22;;
49392;SDS011;35268;42.642;23.308;2023-06-14T02:54:25;8.45;;;5.70;;
49392;SDS011;35268;42.642;23.308;2023-06-14T02:56:59;11.20;;;5.45;;
49392;SDS011;35268;42.642;23.308;2023-06-14T03:02:30;8.93;;;5.05;;
49392;SDS011;35268;42.642;23.308;2023-06-14T03:04:58;7.05;;;5.38;;
49392;SDS011;35268;42.642;23.308;2023-06-14T03:07:41;9.15;;;5.65;;
49392;SDS011;35268;42.642;23.308;2023-06-14T03:10:10;8.32;;;5.43;;
49392;SDS011;35268;42.642;23.308;2023-06-14T03:12:38;9.93;;;5.60;;
49392;SDS011;35268;42.642;23.308;2023-06-14T03:15:06;9.18;;;5.20;;
49392;SDS011;35268;42.642;23.308;2023-06-14T03:17:47;16.23;;;5.78;;
49392;SDS011;35268;42.642;23.308;2023-06-14T03:20:14;8.30;;;5.40;;
49392;SDS011;35268;42.642;23.308;2023-06-14T03:22:56;6.78;;;5.20;;
49392;SDS011;35268;42.642;23.308;2023-06-14T03:25:35;10.63;;;5.53;;
49392;SDS011;35268;42.642;23.308;2023-06-14T03:28:06;8.18;;;5.60;;
49392;SDS011;35268;42.642;23.308;2023-06-14T03:30:36;9.30;;;5.18;;
49392;SDS011;35268;42.642;23.308;2023-06-14T03:33:04;9.32;;;5.10;;
49392;SDS011;35268;42.642;23.308;2023-06-14T03:35:38;11.55;;;5.15;;
49392;SDS011;35268;42.642;23.308;2023-06-14T03:38:06;12.15;;;5.07;;
49392;SDS011;35268;42.642;23.308;2023-06-14T03:40:32;7.45;;;5.53;;
49392;SDS011;35268;42.642;23.308;2023-06-14T03:42:57;7.15;;;5.40;;
49392;SDS011;35268;42.642;23.308;2023-06-14T03:45:23;7.30;;;4.95;;
49392;SDS011;35268;42.642;23.308;2023-06-14T03:47:48;12.77;;;5.07;;
49392;SDS011;35268;42.642;23.308;2023-06-14T03:50:23;14.68;;;5.80;;
49392;SDS011;35268;42.642;23.308;2023-06-14T03:52:51;10.48;;;5.47;;
49392;SDS011;35268;42.642;23.308;2023-06-14T03:55:26;10.00;;;5.97;;
49392;SDS011;35268;42.642;23.308;2023-06-14T03:58:01;7.90;;;4.82;;
49392;SDS011;35268;42.642;23.308;2023-06-14T04:00:27;7.05;;;4.70;;
49392;SDS011;35268;42.642;23.308;2023-06-14T04:02:52;8.05;;;5.15;;
49392;SDS011;35268;42.642;23.308;2023-06-14T04:05:21;8.23;;;5.90;;
49392;SDS011;35268;42.642;23.308;2023-06-14T04:07:46;5.85;;;4.82;;
49392;SDS011;35268;42.642;23.308;2023-06-14T04:10:13;18.83;;;5.90;;
49392;SDS011;35268;42.642;23.308;2023-06-14T04:12:40;13.25;;;6.55;;
49392;SDS011;35268;42.642;23.308;2023-06-14T04:15:06;17.33;;;6.38;;
49392;SDS011;35268;42.642;23.308;2023-06-14T04:17:33;7.38;;;4.82;;
49392;SDS011;35268;42.642;23.308;2023-06-14T04:19:59;7.20;;;5.25;;
49392;SDS011;35268;42.642;23.308;2023-06-14T04:22:34;9.77;;;5.30;;
49392;SDS011;35268;42.642;23.308;2023-06-14T04:25:01;8.98;;;5.70;;
49392;SDS011;35268;42.642;23.308;2023-06-14T04:27:27;13.15;;;6.10;;
49392;SDS011;35268;42.642;23.308;2023-06-14T04:29:55;9.75;;;5.38;;
49392;SDS011;35268;42.642;23.308;2023-06-14T04:32:30;8.35;;;5.10;;
49392;SDS011;35268;42.642;23.308;2023-06-14T04:34:58;9.07;;;5.07;;
49392;SDS011;35268;42.642;23.308;2023-06-14T04:37:27;8.30;;;6.38;;
49392;SDS011;35268;42.642;23.308;2023-06-14T04:39:54;16.17;;;6.35;;
49392;SDS011;35268;42.642;23.308;2023-06-14T04:42:20;12.02;;;6.93;;
49392;SDS011;35268;42.642;23.308;2023-06-14T04:44:49;10.90;;;7.30;;
49392;SDS011;35268;42.642;23.308;2023-06-14T04:47:16;10.77;;;7.75;;
49392;SDS011;35268;42.642;23.308;2023-06-14T04:49:42;13.60;;;7.72;;
49392;SDS011;35268;42.642;23.308;2023-06-14T04:52:08;13.02;;;8.05;;
49392;SDS011;35268;42.642;23.308;2023-06-14T04:54:35;18.42;;;9.80;;
49392;SDS011;35268;42.642;23.308;2023-06-14T04:57:02;15.18;;;8.77;;
49392;SDS011;35268;42.642;23.308;2023-06-14T04:59:29;11.48;;;7.95;;
49392;SDS011;35268;42.642;23.308;2023-06-14T05:01:58;12.95;;;8.15;;
49392;SDS011;35268;42.642;23.308;2023-06-14T05:04:25;12.07;;;7.70;;
49392;SDS011;35268;42.642;23.308;2023-06-14T05:06:54;16.58;;;9.23;;
49392;SDS011;35268;42.642;23.308;2023-06-14T05:09:19;14.38;;;8.52;;
49392;SDS011;35268;42.642;23.308;2023-06-14T05:11:46;18.30;;;11.52;;
49392;SDS011;35268;42.642;23.308;2023-06-14T05:14:15;15.30;;;8.98;;
49392;SDS011;35268;42.642;23.308;2023-06-14T05:16:45;14.13;;;8.50;;
49392;SDS011;35268;42.642;23.308;2023-06-14T05:19:15;18.27;;;8.80;;
49392;SDS011;35268;42.642;23.308;2023-06-14T05:21:44;16.50;;;8.20;;
49392;SDS011;35268;42.642;23.308;2023-06-14T05:24:12;11.82;;;8.55;;
49392;SDS011;35268;42.642;23.308;2023-06-14T05:26:40;11.52;;;8.30;;
49392;SDS011;35268;42.642;23.308;2023-06-14T05:29:05;17.13;;;8.43;;
49392;SDS011;35268;42.642;23.308;2023-06-14T05:31:35;17.05;;;8.95;;
49392;SDS011;35268;42.642;23.308;2023-06-14T05:34:10;15.80;;;9.45;;
49392;SDS011;35268;42.642;23.308;2023-06-14T05:36:56;13.65;;;8.07;;
49392;SDS011;35268;42.642;23.308;2023-06-14T05:39:46;18.45;;;8.23;;
49392;SDS011;35268;42.642;23.308;2023-06-14T05:42:12;18.25;;;7.75;;
49392;SDS011;35268;42.642;23.308;2023-06-14T05:44:50;14.25;;;8.43;;
49392;SDS011;35268;42.642;23.308;2023-06-14T05:47:47;15.90;;;9.50;;
49392;SDS011;35268;42.642;23.308;2023-06-14T05:50:24;14.70;;;7.97;;
49392;SDS011;35268;42.642;23.308;2023-06-14T05:56:00;10.65;;;6.75;;
49392;SDS011;35268;42.642;23.308;2023-06-14T05:58:34;10.85;;;8.20;;
49392;SDS011;35268;42.642;23.308;2023-06-14T06:01:09;15.30;;;9.18;;
49392;SDS011;35268;42.642;23.308;2023-06-14T06:03:49;23.00;;;10.07;;
49392;SDS011;35268;42.642;23.308;2023-06-14T06:06:30;18.98;;;10.98;;
49392;SDS011;35268;42.642;23.308;2023-06-14T06:09:11;14.52;;;9.32;;
49392;SDS011;35268;42.642;23.308;2023-06-14T06:11:42;16.90;;;10.65;;
49392;SDS011;35268;42.642;23.308;2023-06-14T06:14:20;22.65;;;9.93;;
49392;SDS011;35268;42.642;23.308;2023-06-14T06:16:46;17.23;;;10.75;;
49392;SDS011;35268;42.642;23.308;2023-06-14T06:19:34;23.73;;;10.02;;
49392;SDS011;35268;42.642;23.308;2023-06-14T06:22:07;27.52;;;11.30;;
49392;SDS011;35268;42.642;23.308;2023-06-14T06:24:38;14.65;;;9.68;;
49392;SDS011;35268;42.642;23.308;2023-06-14T06:27:10;17.38;;;10.80;;
49392;SDS011;35268;42.642;23.308;2023-06-14T06:29:37;20.05;;;11.05;;
49392;SDS011;35268;42.642;23.308;2023-06-14T06:32:13;19.35;;;12.15;;
49392;SDS011;35268;42.642;23.308;2023-06-14T06:34:48;22.02;;;11.40;;
49392;SDS011;35268;42.642;23.308;2023-06-14T06:37:24;21.33;;;11.68;;
49392;SDS011;35268;42.642;23.308;2023-06-14T06:39:52;21.85;;;11.70;;
49392;SDS011;35268;42.642;23.308;2023-06-14T06:42:25;18.40;;;12.23;;
49392;SDS011;35268;42.642;23.308;2023-06-14T06:44:51;20.67;;;11.48;;
49392;SDS011;35268;42.642;23.308;2023-06-14T06:47:16;28.80;;;11.13;;
49392;SDS011;35268;42.642;23.308;2023-06-14T06:49:44;18.67;;;11.05;;
49392;SDS011;35268;42.642;23.308;2023-06-14T06:52:13;20.70;;;11.43;;
49392;SDS011;35268;42.642;23.308;2023-06-14T06:54:38;22.95;;;11.50;;
49392;SDS011;35268;42.642;23.308;2023-06-14T06:57:04;27.02;;;12.20;;
49392;SDS011;35268;42.642;23.308;2023-06-14T06:59:31;21.45;;;11.45;;
49392;SDS011;35268;42.642;23.308;2023-06-14T07:01:57;20.13;;;11.15;;
49392;SDS011;35268;42.642;23.308;2023-06-14T07:04:22;17.48;;;11.55;;
49392;SDS011;35268;42.642;23.308;2023-06-14T07:06:48;19.92;;;11.65;;
49392;SDS011;35268;42.642;23.308;2023-06-14T07:09:13;18.25;;;11.02;;
49392;SDS011;35268;42.642;23.308;2023-06-14T07:11:41;18.02;;;11.02;;
49392;SDS011;35268;42.642;23.308;2023-06-14T07:14:07;24.88;;;11.15;;
49392;SDS011;35268;42.642;23.308;2023-06-14T07:16:33;18.48;;;11.93;;
49392;SDS011;35268;42.642;23.308;2023-06-14T07:18:59;29.92;;;11.38;;
49392;SDS011;35268;42.642;23.308;2023-06-14T07:21:25;24.20;;;11.57;;
49392;SDS011;35268;42.642;23.308;2023-06-14T07:23:51;20.63;;;11.65;;
49392;SDS011;35268;42.642;23.308;2023-06-14T07:26:20;16.67;;;10.23;;
49392;SDS011;35268;42.642;23.308;2023-06-14T07:28:46;14.75;;;9.68;;
49392;SDS011;35268;42.642;23.308;2023-06-14T07:31:12;21.42;;;12.18;;
49392;SDS011;35268;42.642;23.308;2023-06-14T07:33:38;21.83;;;10.65;;
49392;SDS011;35268;42.642;23.308;2023-06-14T07:36:04;19.05;;;10.70;;
49392;SDS011;35268;42.642;23.308;2023-06-14T07:38:30;21.42;;;11.75;;
49392;SDS011;35268;42.642;23.308;2023-06-14T07:40:59;17.95;;;11.18;;
49392;SDS011;35268;42.642;23.308;2023-06-14T07:43:30;23.23;;;11.02;;
49392;SDS011;35268;42.642;23.308;2023-06-14T07:46:14;19.35;;;11.10;;
49392;SDS011;35268;42.642;23.308;2023-06-14T07:48:51;15.38;;;11.05;;
49392;SDS011;35268;42.642;23.308;2023-06-14T07:51:20;20.83;;;12.18;;
49392;SDS011;35268;42.642;23.308;2023-06-14T07:53:58;16.35;;;11.32;;
49392;SDS011;35268;42.642;23.308;2023-06-14T07:56:51;19.88;;;10.38;;
49392;SDS011;35268;42.642;23.308;2023-06-14T07:59:30;15.17;;;10.00;;
49392;SDS011;35268;42.642;23.308;2023-06-14T08:02:05;14.00;;;9.88;;
49392;SDS011;35268;42.642;23.308;2023-06-14T08:04:41;18.80;;;10.18;;
49392;SDS011;35268;42.642;23.308;2023-06-14T08:07:12;21.23;;;10.13;;
49392;SDS011;35268;42.642;23.308;2023-06-14T08:09:50;18.85;;;10.45;;
49392;SDS011;35268;42.642;23.308;2023-06-14T08:12:18;19.92;;;10.75;;
49392;SDS011;35268;42.642;23.308;2023-06-14T08:14:52;14.40;;;10.17;;
49392;SDS011;35268;42.642;23.308;2023-06-14T08:17:27;22.63;;;10.85;;
49392;SDS011;35268;42.642;23.308;2023-06-14T08:20:00;17.63;;;11.30;;
49392;SDS011;35268;42.642;23.308;2023-06-14T08:22:33;23.83;;;10.35;;
49392;SDS011;35268;42.642;23.308;2023-06-14T08:25:10;18.70;;;10.95;;
49392;SDS011;35268;42.642;23.308;2023-06-14T08:27:39;19.95;;;10.32;;
49392;SDS011;35268;42.642;23.308;2023-06-14T08:30:08;20.00;;;11.20;;
49392;SDS011;35268;42.642;23.308;2023-06-14T08:32:53;21.08;;;10.07;;
49392;SDS011;35268;42.642;23.308;2023-06-14T08:35:20;21.70;;;11.25;;
49392;SDS011;35268;42.642;23.308;2023-06-14T08:37:49;13.73;;;9.93;;
49392;SDS011;35268;42.642;23.308;2023-06-14T08:40:19;17.05;;;10.15;;
49392;SDS011;35268;42.642;23.308;2023-06-14T08:43:07;21.17;;;10.68;;
49392;SDS011;35268;42.642;23.308;2023-06-14T08:45:34;27.63;;;10.82;;
49392;SDS011;35268;42.642;23.308;2023-06-14T08:48:04;17.38;;;11.05;;
49392;SDS011;35268;42.642;23.308;2023-06-14T08:50:41;18.42;;;10.43;;
49392;SDS011;35268;42.642;23.308;2023-06-14T08:53:08;13.65;;;9.90;;
49392;SDS011;35268;42.642;23.308;2023-06-14T08:55:48;22.33;;;11.48;;
49392;SDS011;35268;42.642;23.308;2023-06-14T08:58:20;22.42;;;10.65;;
49392;SDS011;35268;42.642;23.308;2023-06-14T09:00:49;20.30;;;10.45;;
49392;SDS011;35268;42.642;23.308;2023-06-14T09:03:19;25.02;;;11.05;;
49392;SDS011;35268;42.642;23.308;2023-06-14T09:05:51;26.55;;;11.40;;
49392;SDS011;35268;42.642;23.308;2023-06-14T09:08:34;16.55;;;10.52;;
49392;SDS011;35268;42.642;23.308;2023-06-14T09:11:14;16.35;;;9.93;;
49392;SDS011;35268;42.642;23.308;2023-06-14T09:16:19;20.70;;;10.45;;
49392;SDS011;35268;42.642;23.308;2023-06-14T09:18:58;15.93;;;10.00;;
49392;SDS011;35268;42.642;23.308;2023-06-14T09:21:31;16.52;;;9.52;;
49392;SDS011;35268;42.642;23.308;2023-06-14T09:24:01;18.02;;;9.93;;
49392;SDS011;35268;42.642;23.308;2023-06-14T09:26:40;18.50;;;9.95;;
49392;SDS011;35268;42.642;23.308;2023-06-14T09:29:06;18.27;;;9.95;;
49392;SDS011;35268;42.642;23.308;2023-06-14T09:31:41;16.80;;;9.32;;
49392;SDS011;35268;42.642;23.308;2023-06-14T09:34:07;18.50;;;9.85;;
49392;SDS011;35268;42.642;23.308;2023-06-14T09:36:41;16.08;;;9.43;;
49392;SDS011;35268;42.642;23.308;2023-06-14T09:39:07;13.52;;;9.57;;
49392;SDS011;35268;42.642;23.308;2023-06-14T09:41:37;16.65;;;10.02;;
49392;SDS011;35268;42.642;23.308;2023-06-14T09:44:05;16.92;;;11.10;;
49392;SDS011;35268;42.642;23.308;2023-06-14T09:46:32;13.82;;;9.35;;
49392;SDS011;35268;42.642;23.308;2023-06-14T09:48:58;15.93;;;10.43;;
49392;SDS011;35268;42.642;23.308;2023-06-14T09:51:25;16.08;;;10.02;;
49392;SDS011;35268;42.642;23.308;2023-06-14T09:53:52;22.45;;;10.68;;
49392;SDS011;35268;42.642;23.308;2023-06-14T09:56:28;17.23;;;8.70;;
49392;SDS011;35268;42.642;23.308;2023-06-14T09:58:55;15.00;;;10.40;;
49392;SDS011;35268;42.642;23.308;2023-06-14T10:01:22;17.33;;;9.52;;
49392;SDS011;35268;42.642;23.308;2023-06-14T10:03:50;17.30;;;9.73;;
49392;SDS011;35268;42.642;23.308;2023-06-14T10:06:17;17.50;;;8.88;;
49392;SDS011;35268;42.642;23.308;2023-06-14T10:08:42;16.02;;;9.02;;
49392;SDS011;35268;42.642;23.308;2023-06-14T10:11:08;27.30;;;10.07;;
49392;SDS011;35268;42.642;23.308;2023-06-14T10:13:36;21.13;;;10.20;;
49392;SDS011;35268;42.642;23.308;2023-06-14T10:18:38;18.38;;;10.25;;
49392;SDS011;35268;42.642;23.308;2023-06-14T10:24:10;14.15;;;8.75;;
49392;SDS011;35268;42.642;23.308;2023-06-14T10:26:49;19.30;;;8.88;;
49392;SDS011;35268;42.642;23.308;2023-06-14T10:29:16;14.85;;;9.90;;
49392;SDS011;35268;42.642;23.308;2023-06-14T10:31:49;13.13;;;9.20;;
49392;SDS011;35268;42.642;23.308;2023-06-14T10:34:25;16.65;;;10.05;;
49392;SDS011;35268;42.642;23.308;2023-06-14T10:39:41;20.55;;;9.63;;
49392;SDS011;35268;42.642;23.308;2023-06-14T10:42:09;14.10;;;10.18;;
49392;SDS011;35268;42.642;23.308;2023-06-14T10:44:42;14.13;;;9.10;;
49392;SDS011;35268;42.642;23.308;2023-06-14T10:47:19;16.65;;;9.10;;
49392;SDS011;35268;42.642;23.308;2023-06-14T10:50:07;18.30;;;8.70;;
49392;SDS011;35268;42.642;23.308;2023-06-14T10:52:34;18.65;;;9.68;;
49392;SDS011;35268;42.642;23.308;2023-06-14T10:55:10;17.80;;;9.48;;
49392;SDS011;35268;42.642;23.308;2023-06-14T11:00:23;14.65;;;8.25;;
49392;SDS011;35268;42.642;23.308;2023-06-14T11:05:48;15.00;;;8.10;;
49392;SDS011;35268;42.642;23.308;2023-06-14T11:11:05;13.55;;;8.50;;
49392;SDS011;35268;42.642;23.308;2023-06-14T11:13:43;14.32;;;8.88;;
49392;SDS011;35268;42.642;23.308;2023-06-14T11:16:27;16.73;;;8.93;;
49392;SDS011;35268;42.642;23.308;2023-06-14T11:19:06;17.02;;;8.68;;
49392;SDS011;35268;42.642;23.308;2023-06-14T11:21:39;11.55;;;7.85;;
49392;SDS011;35268;42.642;23.308;2023-06-14T11:24:14;12.65;;;7.75;;
49392;SDS011;35268;42.642;23.308;2023-06-14T11:26:46;12.73;;;9.10;;
49392;SDS011;35268;42.642;23.308;2023-06-14T11:31:44;20.13;;;8.93;;
49392;SDS011;35268;42.642;23.308;2023-06-14T11:34:39;12.48;;;7.50;;
49392;SDS011;35268;42.642;23.308;2023-06-14T11:37:11;12.20;;;8.05;;
49392;SDS011;35268;42.642;23.308;2023-06-14T11:39:44;18.05;;;8.60;;
49392;SDS011;35268;42.642;23.308;2023-06-14T11:42:17;11.88;;;7.55;;
49392;SDS011;35268;42.642;23.308;2023-06-14T11:45:06;16.23;;;8.48;;
49392;SDS011;35268;42.642;23.308;2023-06-14T11:47:33;12.27;;;6.65;;
49392;SDS011;35268;42.642;23.308;2023-06-14T11:50:11;11.52;;;6.85;;
49392;SDS011;35268;42.642;23.308;2023-06-14T11:52:39;9.15;;;6.65;;
49392;SDS011;35268;42.642;23.308;2023-06-14T11:55:14;14.52;;;7.18;;
49392;SDS011;35268;42.642;23.308;2023-06-14T11:57:39;10.57;;;6.18;;
49392;SDS011;35268;42.642;23.308;2023-06-14T12:00:16;12.40;;;7.53;;
49392;SDS011;35268;42.642;23.308;2023-06-14T12:02:55;11.23;;;6.90;;
49392;SDS011;35268;42.642;23.308;2023-06-14T12:05:21;11.85;;;6.32;;
49392;SDS011;35268;42.642;23.308;2023-06-14T12:08:03;10.55;;;5.85;;
49392;SDS011;35268;42.642;23.308;2023-06-14T12:10:42;10.00;;;7.00;;
49392;SDS011;35268;42.642;23.308;2023-06-14T12:13:18;10.38;;;5.97;;
49392;SDS011;35268;42.642;23.308;2023-06-14T12:15:44;8.02;;;6.40;;
49392;SDS011;35268;42.642;23.308;2023-06-14T12:18:20;11.57;;;7.00;;
49392;SDS011;35268;42.642;23.308;2023-06-14T12:20:50;10.38;;;6.22;;
49392;SDS011;35268;42.642;23.308;2023-06-14T12:23:26;14.00;;;6.47;;
49392;SDS011;35268;42.642;23.308;2023-06-14T12:25:52;10.27;;;6.05;;
49392;SDS011;35268;42.642;23.308;2023-06-14T12:28:35;8.32;;;6.38;;
49392;SDS011;35268;42.642;23.308;2023-06-14T12:31:05;10.18;;;6.45;;
49392;SDS011;35268;42.642;23.308;2023-06-14T12:33:38;9.73;;;5.97;;
49392;SDS011;35268;42.642;23.308;2023-06-14T12:36:07;10.80;;;5.75;;
49392;SDS011;35268;42.642;23.308;2023-06-14T12:38:34;8.65;;;5.95;;
49392;SDS011;35268;42.642;23.308;2023-06-14T12:44:09;12.45;;;6.00;;
49392;SDS011;35268;42.642;23.308;2023-06-14T12:46:36;9.77;;;6.05;;
49392;SDS011;35268;42.642;23.308;2023-06-14T12:49:12;10.77;;;5.70;;
49392;SDS011;35268;42.642;23.308;2023-06-14T12:51:38;10.88;;;5.85;;
49392;SDS011;35268;42.642;23.308;2023-06-14T12:54:05;9.88;;;5.47;;
49392;SDS011;35268;42.642;23.308;2023-06-14T12:56:33;9.98;;;6.03;;
49392;SDS011;35268;42.642;23.308;2023-06-14T12:59:02;16.52;;;6.28;;
49392;SDS011;35268;42.642;23.308;2023-06-14T13:01:27;17.77;;;6.65;;
49392;SDS011;35268;42.642;23.308;2023-06-14T13:03:53;13.20;;;6.35;;
49392;SDS011;35268;42.642;23.308;2023-06-14T13:06:21;10.65;;;6.20;;
49392;SDS011;35268;42.642;23.308;2023-06-14T13:08:47;11.45;;;5.90;;
49392;SDS011;35268;42.642;23.308;2023-06-14T13:11:13;17.30;;;6.28;;
49392;SDS011;35268;42.642;23.308;2023-06-14T13:13:38;13.98;;;6.50;;
49392;SDS011;35268;42.642;23.308;2023-06-14T13:16:06;12.50;;;6.68;;
49392;SDS011;35268;42.642;23.308;2023-06-14T13:18:31;13.35;;;6.43;;
49392;SDS011;35268;42.642;23.308;2023-06-14T13:20:57;11.68;;;6.57;;
49392;SDS011;35268;42.642;23.308;2023-06-14T13:23:23;10.63;;;6.88;;
49392;SDS011;35268;42.642;23.308;2023-06-14T13:25:49;10.52;;;6.72;;
49392;SDS011;35268;42.642;23.308;2023-06-14T13:28:18;13.23;;;6.68;;
49392;SDS011;35268;42.642;23.308;2023-06-14T13:30:43;18.75;;;6.57;;
49392;SDS011;35268;42.642;23.308;2023-06-14T13:33:09;11.48;;;6.90;;
49392;SDS011;35268;42.642;23.308;2023-06-14T13:35:34;25.42;;;7.32;;
49392;SDS011;35268;42.642;23.308;2023-06-14T13:38:00;13.82;;;6.05;;
49392;SDS011;35268;42.642;23.308;2023-06-14T13:40:25;9.32;;;6.30;;
49392;SDS011;35268;42.642;23.308;2023-06-14T13:42:51;11.82;;;6.80;;
49392;SDS011;35268;42.642;23.308;2023-06-14T13:45:16;9.75;;;6.25;;
49392;SDS011;35268;42.642;23.308;2023-06-14T13:47:42;11.82;;;6.70;;
49392;SDS011;35268;42.642;23.308;2023-06-14T13:50:07;10.20;;;6.47;;
49392;SDS011;35268;42.642;23.308;2023-06-14T13:52:33;9.95;;;6.32;;
49392;SDS011;35268;42.642;23.308;2023-06-14T13:54:59;13.50;;;6.53;;
49392;SDS011;35268;42.642;23.308;2023-06-14T13:57:25;9.10;;;6.38;;
49392;SDS011;35268;42.642;23.308;2023-06-14T13:59:53;10.52;;;6.65;;
49392;SDS011;35268;42.642;23.308;2023-06-14T14:02:20;12.02;;;6.30;;
49392;SDS011;35268;42.642;23.308;2023-06-14T14:04:46;8.88;;;6.15;;
49392;SDS011;35268;42.642;23.308;2023-06-14T14:07:17;8.02;;;5.85;;
49392;SDS011;35268;42.642;23.308;2023-06-14T14:09:45;10.75;;;6.50;;
49392;SDS011;35268;42.642;23.308;2023-06-14T14:12:11;9.70;;;6.22;;
49392;SDS011;35268;42.642;23.308;2023-06-14T14:14:36;7.43;;;5.43;;
49392;SDS011;35268;42.642;23.308;2023-06-14T14:17:02;9.75;;;5.85;;
49392;SDS011;35268;42.642;23.308;2023-06-14T14:19:27;16.27;;;6.30;;
49392;SDS011;35268;42.642;23.308;2023-06-14T14:21:53;7.30;;;5.45;;
49392;SDS011;35268;42.642;23.308;2023-06-14T14:24:19;7.68;;;5.38;;
49392;SDS011;35268;42.642;23.308;2023-06-14T14:26:44;9.95;;;4.68;;
49392;SDS011;35268;42.642;23.308;2023-06-14T14:29:14;5.93;;;3.85;;
49392;SDS011;35268;42.642;23.308;2023-06-14T14:31:40;7.55;;;4.82;;
49392;SDS011;35268;42.642;23.308;2023-06-14T14:34:07;6.00;;;4.40;;
49392;SDS011;35268;42.642;23.308;2023-06-14T14:36:32;7.85;;;4.82;;
49392;SDS011;35268;42.642;23.308;2023-06-14T14:39:03;9.77;;;5.22;;
49392;SDS011;35268;42.642;23.308;2023-06-14T14:41:29;8.65;;;4.97;;
49392;SDS011;35268;42.642;23.308;2023-06-14T14:43:54;8.00;;;4.72;;
49392;SDS011;35268;42.642;23.308;2023-06-14T14:46:20;9.02;;;4.88;;
49392;SDS011;35268;42.642;23.308;2023-06-14T14:48:45;10.23;;;5.45;;
49392;SDS011;35268;42.642;23.308;2023-06-14T14:51:11;7.22;;;4.25;;
49392;SDS011;35268;42.642;23.308;2023-06-14T14:53:36;7.10;;;5.10;;
49392;SDS011;35268;42.642;23.308;2023-06-14T14:56:02;7.63;;;5.38;;
49392;SDS011;35268;42.642;23.308;2023-06-14T14:58:30;7.20;;;5.45;;
49392;SDS011;35268;42.642;23.308;2023-06-14T15:00:56;9.57;;;5.75;;
49392;SDS011;35268;42.642;23.308;2023-06-14T15:03:22;11.15;;;6.35;;
49392;SDS011;35268;42.642;23.308;2023-06-14T15:05:50;12.38;;;6.68;;
49392;SDS011;35268;42.642;23.308;2023-06-14T15:08:15;12.50;;;7.03;;
49392;SDS011;35268;42.642;23.308;2023-06-14T15:10:41;13.20;;;7.22;;
49392;SDS011;35268;42.642;23.308;2023-06-14T15:13:08;16.63;;;7.53;;
49392;SDS011;35268;42.642;23.308;2023-06-14T15:15:34;14.20;;;7.65;;
49392;SDS011;35268;42.642;23.308;2023-06-14T15:18:00;14.50;;;7.70;;